createdAt,value
2018-05-17T00:01:14.627Z,14.20
2018-05-17T00:03:42.535Z,12.73
2018-05-17T00:06:10.447Z,10.80
2018-05-17T00:08:38.382Z,16.30
2018-05-17T00:11:06.316Z,11.30
2018-05-17T00:13:34.229Z,12.10
2018-05-17T00:16:02.167Z,12.90
2018-05-17T00:18:30.061Z,13.03
2018-05-17T00:20:57.991Z,13.13
2018-05-17T00:23:25.916Z,12.40
2018-05-17T00:25:53.831Z,9.70
2018-05-17T00:28:21.739Z,11.43
2018-05-17T00:30:49.669Z,16.07
2018-05-17T00:33:17.575Z,12.53
2018-05-17T00:35:45.590Z,13.03
2018-05-17T00:38:13.510Z,18.73
2018-05-17T00:40:41.450Z,14.60
2018-05-17T00:43:09.371Z,13.10
2018-05-17T00:45:37.295Z,12.87
2018-05-17T00:48:05.215Z,21.70
2018-05-17T00:50:33.132Z,15.53
2018-05-17T00:53:12.877Z,10.47
2018-05-17T00:55:40.821Z,11.17
2018-05-17T00:58:08.732Z,13.70
2018-05-17T01:00:36.636Z,9.83
2018-05-17T01:03:04.542Z,13.07
2018-05-17T01:05:32.527Z,10.37
2018-05-17T01:08:00.464Z,11.70
2018-05-17T01:10:28.383Z,15.30
2018-05-17T01:12:56.334Z,12.93
2018-05-17T01:15:24.234Z,14.57
2018-05-17T01:17:52.202Z,17.70
2018-05-17T01:20:20.105Z,11.70
2018-05-17T01:22:48.040Z,11.53
2018-05-17T01:25:15.957Z,19.97
2018-05-17T01:27:43.887Z,15.27
2018-05-17T01:30:11.923Z,16.80
2018-05-17T01:32:39.837Z,14.40
2018-05-17T01:35:07.833Z,14.67
2018-05-17T01:37:47.382Z,18.67
2018-05-17T01:40:15.288Z,21.03
2018-05-17T01:42:43.213Z,14.20
2018-05-17T01:45:11.125Z,12.43
2018-05-17T01:47:39.051Z,23.43
2018-05-17T01:50:06.990Z,14.37
2018-05-17T01:52:34.893Z,17.90
2018-05-17T01:55:02.827Z,17.97
2018-05-17T01:57:30.730Z,18.23
2018-05-17T01:59:58.644Z,18.37
2018-05-17T02:02:26.566Z,22.10
2018-05-17T02:04:54.480Z,19.80
2018-05-17T02:07:22.388Z,18.80
2018-05-17T02:09:50.432Z,20.27
2018-05-17T02:12:18.323Z,22.50
2018-05-17T02:14:46.247Z,20.57
2018-05-17T02:17:14.173Z,19.83
2018-05-17T02:19:42.083Z,26.33
2018-05-17T02:22:10.072Z,19.87
2018-05-17T02:24:37.977Z,17.30
2018-05-17T02:27:06.049Z,27.20
2018-05-17T02:29:33.973Z,31.70
2018-05-17T02:32:01.886Z,17.90
2018-05-17T02:34:29.812Z,22.73
2018-05-17T02:36:57.722Z,30.90
2018-05-17T02:39:25.645Z,26.13
2018-05-17T02:41:53.566Z,18.90
2018-05-17T02:44:21.535Z,21.87
2018-05-17T02:46:49.428Z,23.47
2018-05-17T02:49:17.491Z,26.00
2018-05-17T02:51:45.321Z,15.40
2018-05-17T02:54:13.246Z,22.90
2018-05-17T02:56:41.463Z,21.63
2018-05-17T02:59:09.394Z,22.37
2018-05-17T03:01:37.298Z,24.13
2018-05-17T03:04:05.626Z,25.10
2018-05-17T03:06:33.561Z,19.63
2018-05-17T03:09:01.473Z,23.17
2018-05-17T03:11:29.910Z,25.20
2018-05-17T03:13:57.824Z,24.87
2018-05-17T03:16:25.730Z,25.57
2018-05-17T03:18:53.652Z,19.17
2018-05-17T03:21:21.602Z,20.07
2018-05-17T03:23:49.527Z,30.13
2018-05-17T03:26:17.458Z,19.97
2018-05-17T03:28:45.637Z,16.53
2018-05-17T03:31:13.541Z,31.83
2018-05-17T03:33:41.456Z,24.03
2018-05-17T03:36:09.369Z,21.73
2018-05-17T03:38:37.300Z,26.47
2018-05-17T03:41:05.219Z,24.00
2018-05-17T03:43:33.151Z,24.27
2018-05-17T03:46:01.067Z,23.93
2018-05-17T03:48:29.022Z,19.40
2018-05-17T03:50:56.919Z,18.90
2018-05-17T03:53:24.859Z,27.43
2018-05-17T03:55:52.763Z,24.73
2018-05-17T03:58:20.701Z,15.33
2018-05-17T04:01:00.481Z,26.90
2018-05-17T04:03:40.252Z,20.47
2018-05-17T04:06:20.033Z,24.70
2018-05-17T04:08:48.787Z,21.50
2018-05-17T04:11:16.713Z,22.40
2018-05-17T04:13:44.738Z,24.70
2018-05-17T04:16:12.636Z,17.63
2018-05-17T04:18:40.558Z,21.07
2018-05-17T04:21:08.532Z,31.93
2018-05-17T04:23:36.518Z,27.70
2018-05-17T04:26:04.445Z,28.20
2018-05-17T04:28:32.346Z,27.83
2018-05-17T04:31:00.302Z,25.47
2018-05-17T04:33:28.212Z,28.53
2018-05-17T04:35:56.155Z,23.73
2018-05-17T04:38:24.065Z,23.00
2018-05-17T04:40:52.004Z,24.80
2018-05-17T04:43:19.910Z,24.60
2018-05-17T04:45:47.852Z,24.20
2018-05-17T04:48:15.783Z,28.43
2018-05-17T04:50:43.708Z,33.10
2018-05-17T04:53:12.623Z,28.90
2018-05-17T04:55:40.576Z,40.07
2018-05-17T04:58:08.512Z,33.00
2018-05-17T05:00:36.448Z,34.67
2018-05-17T05:03:04.403Z,30.20
2018-05-17T05:05:32.990Z,36.97
2018-05-17T05:08:01.433Z,31.00
2018-05-17T05:10:29.355Z,22.97
2018-05-17T05:12:57.300Z,31.03
2018-05-17T05:15:25.211Z,25.77
2018-05-17T05:17:53.172Z,28.50
2018-05-17T05:20:21.272Z,35.93
2018-05-17T05:22:49.405Z,31.23
2018-05-17T05:25:17.602Z,38.10
2018-05-17T05:27:45.543Z,34.53
2018-05-17T05:30:13.592Z,32.73
2018-05-17T05:32:41.603Z,31.30
2018-05-17T05:35:09.621Z,35.80
2018-05-17T05:37:37.759Z,33.17
2018-05-17T05:40:05.613Z,30.53
2018-05-17T05:42:33.717Z,36.00
2018-05-17T05:45:01.665Z,40.77
2018-05-17T05:47:29.602Z,37.63
2018-05-17T05:49:57.658Z,30.20
2018-05-17T05:52:25.659Z,31.33
2018-05-17T05:54:55.289Z,30.57
2018-05-17T05:57:23.248Z,33.03
2018-05-17T05:59:51.180Z,39.17
2018-05-17T06:02:19.378Z,26.27
2018-05-17T06:04:47.277Z,33.23
2018-05-17T06:07:15.490Z,34.07
2018-05-17T06:09:43.523Z,31.60
2018-05-17T06:12:11.645Z,32.43
2018-05-17T06:14:39.649Z,37.17
2018-05-17T06:17:07.579Z,30.23
2018-05-17T06:19:35.518Z,32.90
2018-05-17T06:22:03.440Z,39.63
2018-05-17T06:24:31.377Z,32.27
2018-05-17T06:26:59.291Z,36.33
2018-05-17T06:29:27.232Z,29.90
2018-05-17T06:31:55.147Z,31.37
2018-05-17T06:34:23.113Z,38.20
2018-05-17T06:36:51.097Z,31.27
2018-05-17T06:39:19.019Z,29.27
2018-05-17T06:41:46.952Z,37.27
2018-05-17T06:44:15.798Z,31.43
2018-05-17T06:46:43.762Z,30.33
2018-05-17T06:49:11.691Z,35.63
2018-05-17T06:51:39.653Z,39.37
2018-05-17T06:54:07.562Z,39.90
2018-05-17T06:56:35.476Z,34.27
2018-05-17T06:59:03.418Z,31.17
2018-05-17T07:01:31.345Z,35.63
2018-05-17T07:03:59.247Z,29.80
2018-05-17T07:06:27.239Z,31.20
2018-05-17T07:08:55.165Z,25.90
2018-05-17T07:11:23.116Z,31.60
2018-05-17T07:13:51.072Z,24.37
2018-05-17T07:16:19.029Z,29.13
2018-05-17T07:18:47.355Z,40.83
2018-05-17T07:21:14.895Z,30.47
2018-05-17T07:23:42.827Z,27.10
2018-05-17T07:26:10.775Z,27.13
2018-05-17T07:28:38.726Z,31.17
2018-05-17T07:31:06.672Z,29.67
2018-05-17T07:33:34.709Z,45.43
2018-05-17T07:36:02.620Z,32.67
2018-05-17T07:38:30.552Z,31.93
2018-05-17T07:40:58.497Z,28.53
2018-05-17T07:43:26.442Z,35.70
2018-05-17T07:45:54.351Z,24.90
2018-05-17T07:48:22.305Z,32.97
2018-05-17T07:50:50.285Z,32.00
2018-05-17T07:53:18.206Z,32.20
2018-05-17T07:55:46.128Z,31.57
2018-05-17T07:58:14.052Z,30.27
2018-05-17T08:00:41.981Z,36.63
2018-05-17T08:03:09.919Z,31.27
2018-05-17T08:05:37.840Z,30.63
2018-05-17T08:08:05.769Z,31.40
2018-05-17T08:10:33.676Z,33.53
2018-05-17T08:13:01.598Z,33.33
2018-05-17T08:15:29.649Z,39.60
2018-05-17T08:17:57.681Z,26.50
2018-05-17T08:20:25.604Z,30.83
2018-05-17T08:22:53.567Z,34.87
2018-05-17T08:25:21.483Z,34.03
2018-05-17T08:27:49.401Z,38.57
2018-05-17T08:30:17.644Z,36.73
2018-05-17T08:32:45.528Z,30.97
2018-05-17T08:35:13.558Z,31.07
2018-05-17T08:37:41.446Z,34.70
2018-05-17T08:40:09.383Z,34.53
2018-05-17T08:42:37.394Z,23.37
2018-05-17T08:45:05.570Z,29.87
2018-05-17T08:47:33.468Z,31.93
2018-05-17T08:50:02.078Z,41.00
2018-05-17T08:52:29.998Z,35.37
2018-05-17T08:54:58.804Z,34.70
2018-05-17T08:57:27.731Z,33.03
2018-05-17T08:59:55.657Z,26.10
2018-05-17T09:02:23.572Z,33.50
2018-05-17T09:04:51.720Z,38.87
2018-05-17T09:07:19.984Z,34.30
2018-05-17T09:09:47.884Z,34.53
2018-05-17T09:12:15.833Z,37.33
2018-05-17T09:14:43.780Z,28.97
2018-05-17T09:17:11.715Z,24.57
2018-05-17T09:19:39.646Z,24.80
2018-05-17T09:22:07.591Z,28.33
2018-05-17T09:24:35.532Z,30.90
2018-05-17T09:27:03.465Z,29.70
2018-05-17T09:29:31.393Z,30.63
2018-05-17T09:31:59.932Z,22.93
2018-05-17T09:34:27.856Z,19.27
2018-05-17T09:36:55.786Z,23.17
2018-05-17T09:39:23.968Z,23.27
2018-05-17T09:41:51.880Z,24.83
2018-05-17T09:44:19.799Z,24.40
2018-05-17T09:46:47.731Z,24.80
2018-05-17T09:49:15.657Z,25.83
2018-05-17T09:51:43.580Z,27.30
2018-05-17T09:54:11.919Z,21.73
2018-05-17T09:56:39.878Z,27.00
2018-05-17T09:59:07.843Z,25.23
2018-05-17T10:01:35.784Z,23.47
2018-05-17T10:04:03.712Z,30.33
2018-05-17T10:06:31.621Z,31.03
2018-05-17T10:08:59.655Z,30.77
2018-05-17T10:11:27.488Z,25.77
2018-05-17T10:13:55.442Z,20.10
2018-05-17T10:16:23.544Z,19.40
2018-05-17T10:18:51.450Z,20.60
2018-05-17T10:21:19.380Z,30.93
2018-05-17T10:23:47.326Z,19.70
2018-05-17T10:26:15.297Z,22.40
2018-05-17T10:28:43.211Z,29.67
2018-05-17T10:31:11.384Z,24.73
2018-05-17T10:33:39.281Z,23.23
2018-05-17T10:36:07.191Z,24.73
2018-05-17T10:38:35.133Z,22.53
2018-05-17T10:41:03.061Z,30.03
2018-05-17T10:43:30.973Z,24.73
2018-05-17T10:45:58.933Z,32.00
2018-05-17T10:48:26.877Z,28.07
2018-05-17T10:50:54.795Z,29.33
2018-05-17T10:53:22.764Z,24.60
2018-05-17T10:55:50.674Z,28.83
2018-05-17T10:58:18.575Z,22.17
2018-05-17T11:00:46.591Z,27.70
2018-05-17T11:03:14.506Z,19.17
2018-05-17T11:05:42.753Z,23.30
2018-05-17T11:08:10.748Z,22.97
2018-05-17T11:10:39.621Z,27.33
2018-05-17T11:13:07.534Z,24.47
2018-05-17T11:15:36.200Z,23.57
2018-05-17T11:18:04.144Z,27.13
2018-05-17T11:20:32.052Z,29.20
2018-05-17T11:22:59.980Z,28.90
2018-05-17T11:25:27.944Z,25.97
2018-05-17T11:27:55.884Z,21.57
2018-05-17T11:30:24.869Z,30.63
2018-05-17T11:32:52.782Z,25.63
2018-05-17T11:35:20.728Z,31.20
2018-05-17T11:37:48.721Z,24.30
2018-05-17T11:40:17.001Z,32.73
2018-05-17T11:42:44.884Z,28.70
2018-05-17T11:45:12.822Z,34.23
2018-05-17T11:47:40.869Z,34.07
2018-05-17T11:50:08.850Z,28.37
2018-05-17T11:52:36.789Z,25.47
2018-05-17T11:55:04.686Z,31.80
2018-05-17T11:57:32.624Z,31.70
2018-05-17T12:00:00.553Z,26.57
2018-05-17T12:02:28.458Z,26.87
2018-05-17T12:04:56.467Z,32.07
2018-05-17T12:07:25.311Z,28.13
2018-05-17T12:09:53.249Z,25.70
2018-05-17T12:12:21.269Z,32.20
2018-05-17T12:14:49.196Z,33.80
2018-05-17T12:17:17.152Z,30.37
2018-05-17T12:19:45.070Z,34.80
2018-05-17T12:22:13.036Z,29.73
2018-05-17T12:24:41.068Z,29.03
2018-05-17T12:27:08.981Z,24.83
2018-05-17T12:29:36.901Z,32.80
2018-05-17T12:32:04.815Z,28.47
2018-05-17T12:34:32.734Z,37.23
2018-05-17T12:37:00.658Z,39.43
2018-05-17T12:39:28.584Z,31.80
2018-05-17T12:41:56.523Z,28.20
2018-05-17T12:44:24.431Z,25.43
2018-05-17T12:46:52.360Z,27.37
2018-05-17T12:49:20.268Z,21.77
2018-05-17T12:51:48.220Z,30.43
2018-05-17T12:54:16.136Z,29.03
2018-05-17T12:56:44.144Z,24.97
2018-05-17T12:59:12.042Z,33.87
2018-05-17T13:01:39.990Z,26.80
2018-05-17T13:04:07.930Z,30.10
2018-05-17T13:06:35.875Z,33.90
2018-05-17T13:09:03.777Z,32.27
2018-05-17T13:11:31.735Z,32.93
2018-05-17T13:13:59.696Z,31.10
2018-05-17T13:16:27.675Z,23.40
2018-05-17T13:18:55.584Z,26.70
2018-05-17T13:21:23.548Z,29.80
2018-05-17T13:23:51.475Z,29.10
2018-05-17T13:26:19.432Z,36.07
2018-05-17T13:28:47.365Z,24.40
2018-05-17T13:31:15.298Z,37.70
2018-05-17T13:33:43.221Z,34.57
2018-05-17T13:36:11.165Z,32.47
2018-05-17T13:38:39.106Z,36.73
2018-05-17T13:41:07.040Z,27.70
2018-05-17T13:43:35.051Z,40.27
2018-05-17T13:46:02.971Z,33.70
2018-05-17T13:48:30.909Z,31.27
2018-05-17T13:50:58.850Z,31.57
2018-05-17T13:53:26.776Z,30.87
2018-05-17T13:55:54.728Z,31.63
2018-05-17T13:58:22.646Z,36.20
2018-05-17T14:00:50.590Z,24.30
2018-05-17T14:03:18.521Z,28.07
2018-05-17T14:05:46.457Z,25.47
2018-05-17T14:08:14.416Z,35.63
2018-05-17T14:10:42.372Z,25.50
2018-05-17T14:13:10.301Z,26.13
2018-05-17T14:15:38.312Z,25.33
2018-05-17T14:18:06.205Z,24.43
2018-05-17T14:20:34.114Z,29.37
2018-05-17T14:23:02.104Z,25.40
2018-05-17T14:25:29.989Z,30.50
2018-05-17T14:27:57.936Z,23.80
2018-05-17T14:30:25.880Z,24.10
2018-05-17T14:32:53.846Z,28.67
2018-05-17T14:35:21.767Z,23.87
2018-05-17T14:37:49.987Z,21.63
2018-05-17T14:40:17.939Z,24.50
2018-05-17T14:42:45.856Z,26.10
2018-05-17T14:45:13.815Z,31.90
2018-05-17T14:47:41.729Z,25.90
2018-05-17T14:50:09.653Z,24.93
2018-05-17T14:52:37.581Z,29.67
2018-05-17T14:55:05.555Z,26.13
2018-05-17T14:57:33.449Z,29.83
2018-05-17T15:00:01.361Z,28.80
2018-05-17T15:02:29.291Z,27.63
2018-05-17T15:04:57.197Z,27.70
2018-05-17T15:07:25.152Z,31.93
2018-05-17T15:09:53.077Z,25.87
2018-05-17T15:12:21.080Z,23.47
2018-05-17T15:14:49.012Z,24.90
2018-05-17T15:17:16.942Z,29.30
2018-05-17T15:19:44.951Z,26.33
2018-05-17T15:22:12.900Z,25.43
2018-05-17T15:24:40.897Z,27.83
2018-05-17T15:27:08.773Z,34.10
2018-05-17T15:29:36.813Z,21.70
2018-05-17T15:32:04.652Z,32.83
2018-05-17T15:34:32.593Z,22.53
2018-05-17T15:37:00.500Z,26.90
2018-05-17T15:39:28.445Z,32.57
2018-05-17T15:41:56.379Z,23.33
2018-05-17T15:44:24.299Z,29.50
2018-05-17T15:46:52.281Z,23.87
2018-05-17T15:49:20.254Z,28.30
2018-05-17T15:51:48.236Z,26.60
2018-05-17T15:54:16.151Z,25.40
2018-05-17T15:56:44.111Z,26.23
2018-05-17T15:59:12.034Z,22.80
2018-05-17T16:01:40.005Z,27.43
2018-05-17T16:04:07.929Z,26.03
2018-05-17T16:06:35.958Z,29.30
2018-05-17T16:09:03.823Z,28.40
2018-05-17T16:11:31.739Z,22.97
2018-05-17T16:13:59.752Z,32.80
2018-05-17T16:16:27.739Z,19.40
2018-05-17T16:18:55.689Z,31.97
2018-05-17T16:21:23.655Z,27.00
2018-05-17T16:23:51.638Z,23.97
2018-05-17T16:26:19.596Z,33.70
2018-05-17T16:28:47.507Z,29.07
2018-05-17T16:31:15.516Z,24.23
2018-05-17T16:33:43.453Z,28.20
2018-05-17T16:36:11.406Z,27.30
2018-05-17T16:38:39.320Z,24.27
2018-05-17T16:41:07.240Z,23.57
2018-05-17T16:43:35.158Z,22.63
2018-05-17T16:46:03.124Z,27.20
2018-05-17T16:48:31.086Z,34.23
2018-05-17T16:50:58.983Z,24.90
2018-05-17T16:53:26.903Z,32.47
2018-05-17T16:55:54.956Z,35.73
2018-05-17T16:58:22.933Z,23.60
2018-05-17T17:00:50.980Z,23.03
2018-05-17T17:03:18.922Z,24.90
2018-05-17T17:05:46.866Z,35.00
2018-05-17T17:08:14.827Z,28.40
2018-05-17T17:10:42.758Z,26.07
2018-05-17T17:13:11.476Z,24.27
2018-05-17T17:15:39.407Z,31.57
2018-05-17T17:18:07.331Z,31.17
2018-05-17T17:20:35.244Z,22.87
2018-05-17T17:23:03.184Z,25.40
2018-05-17T17:25:31.092Z,21.40
2018-05-17T17:27:59.051Z,26.97
2018-05-17T17:30:26.960Z,27.57
2018-05-17T17:32:54.883Z,27.30
2018-05-17T17:35:22.800Z,25.60
2018-05-17T17:37:50.734Z,24.20
2018-05-17T17:40:18.644Z,22.30
2018-05-17T17:42:46.584Z,23.63
2018-05-17T17:45:14.505Z,28.07
2018-05-17T17:47:42.535Z,25.50
2018-05-17T17:50:10.448Z,28.43
2018-05-17T17:52:38.394Z,20.67
2018-05-17T17:55:06.335Z,27.57
2018-05-17T17:57:34.388Z,28.33
2018-05-17T18:00:02.378Z,27.60
2018-05-17T18:02:30.354Z,24.17
2018-05-17T18:04:58.286Z,26.00
2018-05-17T18:07:26.225Z,23.60
2018-05-17T18:09:54.141Z,29.13
2018-05-17T18:12:22.157Z,29.13
2018-05-17T18:14:50.227Z,33.40
2018-05-17T18:17:18.197Z,18.73
2018-05-17T18:19:46.243Z,23.90
2018-05-17T18:22:14.153Z,27.43
2018-05-17T18:24:42.060Z,25.23
2018-05-17T18:27:09.988Z,24.60
2018-05-17T18:29:37.927Z,23.17
2018-05-17T18:32:05.880Z,30.77
2018-05-17T18:34:33.776Z,23.20
2018-05-17T18:37:01.714Z,22.93
2018-05-17T18:39:29.652Z,22.07
2018-05-17T18:41:57.589Z,28.53
2018-05-17T18:44:25.528Z,26.40
2018-05-17T18:46:53.460Z,30.30
2018-05-17T18:49:21.386Z,27.00
2018-05-17T18:51:49.329Z,26.50
2018-05-17T18:54:17.247Z,23.63
2018-05-17T18:56:45.179Z,25.00
2018-05-17T18:59:13.140Z,28.50
2018-05-17T19:01:41.142Z,30.10
2018-05-17T19:04:09.455Z,25.67
2018-05-17T19:06:37.383Z,23.17
2018-05-17T19:09:05.321Z,22.73
2018-05-17T19:11:33.277Z,29.03
2018-05-17T19:14:01.315Z,31.63
2018-05-17T19:16:29.240Z,26.50
2018-05-17T19:18:57.172Z,23.57
2018-05-17T19:21:25.118Z,23.57
2018-05-17T19:23:53.057Z,25.60
2018-05-17T19:26:20.991Z,22.43
2018-05-17T19:28:48.983Z,24.93
2018-05-17T19:31:16.912Z,26.73
2018-05-17T19:33:44.834Z,19.57
2018-05-17T19:36:12.690Z,23.80
2018-05-17T19:38:41.408Z,24.00
2018-05-17T19:41:09.355Z,56.60
2018-05-17T19:43:37.278Z,44.33
2018-05-17T19:46:05.379Z,54.83
2018-05-17T19:48:33.301Z,48.83
2018-05-17T19:51:01.278Z,48.70
2018-05-17T19:53:29.206Z,30.67
2018-05-17T19:55:57.152Z,23.73
2018-05-17T19:58:25.076Z,22.43
2018-05-17T20:00:52.994Z,26.07
2018-05-17T20:03:21.015Z,21.10
2018-05-17T20:05:49.034Z,21.60
2018-05-17T20:08:17.131Z,33.37
2018-05-17T20:10:45.073Z,26.73
2018-05-17T20:13:13.484Z,20.87
2018-05-17T20:15:41.557Z,24.03
2018-05-17T20:18:09.442Z,31.33
2018-05-17T20:20:38.172Z,22.77
2018-05-17T20:23:06.128Z,22.87
2018-05-17T20:25:34.724Z,23.20
2018-05-17T20:28:02.687Z,23.20
2018-05-17T20:30:30.611Z,19.67
2018-05-17T20:32:58.616Z,27.33
2018-05-17T20:35:26.541Z,17.20
2018-05-17T20:37:54.473Z,25.33
2018-05-17T20:40:22.395Z,21.43
2018-05-17T20:42:52.229Z,25.07
2018-05-17T20:45:20.183Z,23.67
2018-05-17T20:47:48.168Z,22.73
2018-05-17T20:50:16.101Z,37.40
2018-05-17T20:52:44.059Z,40.03
2018-05-17T20:55:12.371Z,70.70
2018-05-17T20:57:40.277Z,64.97
2018-05-17T21:00:08.212Z,42.73
2018-05-17T21:02:36.144Z,41.33
2018-05-17T21:05:04.126Z,39.30
2018-05-17T21:07:32.049Z,21.93
2018-05-17T21:10:00.006Z,25.73
2018-05-17T21:12:27.921Z,20.07
2018-05-17T21:14:55.898Z,18.07
2018-05-17T21:17:24.232Z,20.63
2018-05-17T21:19:52.175Z,19.63
2018-05-17T21:22:20.110Z,18.77
2018-05-17T21:24:48.052Z,22.13
2018-05-17T21:27:16.024Z,20.20
2018-05-17T21:29:43.990Z,21.23
2018-05-17T21:32:12.244Z,22.00
2018-05-17T21:34:40.229Z,20.60
2018-05-17T21:37:08.184Z,21.53
2018-05-17T21:39:36.271Z,20.43
2018-05-17T21:42:04.180Z,21.27
2018-05-17T21:44:32.904Z,20.17
2018-05-17T21:47:00.843Z,22.80
2018-05-17T21:49:28.843Z,22.30
2018-05-17T21:51:57.667Z,18.00
2018-05-17T21:54:25.642Z,21.23
2018-05-17T21:56:53.631Z,21.57
2018-05-17T21:59:21.617Z,23.57
2018-05-17T22:01:49.559Z,25.20
2018-05-17T22:04:17.509Z,20.30
2018-05-17T22:06:45.453Z,16.53
2018-05-17T22:09:13.378Z,26.50
2018-05-17T22:11:41.326Z,21.50
2018-05-17T22:14:09.272Z,19.43
2018-05-17T22:16:37.375Z,22.50
2018-05-17T22:19:05.289Z,27.27
2018-05-17T22:21:33.235Z,30.43
2018-05-17T22:24:01.156Z,18.27
2018-05-17T22:26:29.064Z,24.57
2018-05-17T22:28:56.988Z,19.87
2018-05-17T22:31:24.920Z,24.87
2018-05-17T22:33:52.863Z,28.87
2018-05-17T22:36:20.792Z,20.47
2018-05-17T22:38:48.714Z,26.47
2018-05-17T22:41:16.640Z,27.97
2018-05-17T22:43:44.570Z,22.30
2018-05-17T22:46:13.310Z,20.57
2018-05-17T22:48:41.223Z,24.47
2018-05-17T22:51:10.075Z,24.20
2018-05-17T22:53:38.012Z,28.40
2018-05-17T22:56:06.111Z,23.80
2018-05-17T22:58:34.052Z,28.17
2018-05-17T23:01:02.849Z,25.43
2018-05-17T23:03:30.782Z,24.50
2018-05-17T23:05:58.703Z,26.10
2018-05-17T23:08:26.648Z,25.17
2018-05-17T23:10:54.543Z,27.40
2018-05-17T23:13:22.472Z,25.53
2018-05-17T23:15:50.398Z,32.03
2018-05-17T23:18:18.351Z,27.93
2018-05-17T23:20:46.289Z,23.47
2018-05-17T23:23:14.669Z,26.00
2018-05-17T23:25:42.612Z,21.43
2018-05-17T23:28:10.549Z,27.23
2018-05-17T23:30:38.600Z,30.23
2018-05-17T23:33:06.542Z,25.70
2018-05-17T23:35:34.467Z,30.53
2018-05-17T23:38:02.435Z,30.40
2018-05-17T23:43:30.793Z,27.27
2018-05-17T23:45:58.746Z,36.40
2018-05-17T23:48:26.716Z,37.00
2018-05-17T23:50:55.280Z,44.33
2018-05-17T23:53:23.207Z,42.20
2018-05-17T23:55:51.157Z,40.53
2018-05-17T23:58:19.232Z,42.80
